createdAt,value
2018-03-25T00:00:23.028Z,0
2018-03-25T00:01:24.403Z,0
2018-03-25T00:02:25.795Z,0
2018-03-25T00:03:27.168Z,0
2018-03-25T00:04:28.550Z,0
2018-03-25T00:05:29.935Z,0
2018-03-25T00:06:31.306Z,0
2018-03-25T00:07:32.789Z,0
2018-03-25T00:08:34.172Z,0
2018-03-25T00:09:35.550Z,0
2018-03-25T00:10:36.930Z,0
2018-03-25T00:11:38.304Z,0
2018-03-25T00:12:39.691Z,0
2018-03-25T00:13:41.067Z,0
2018-03-25T00:14:42.458Z,0
2018-03-25T00:15:43.842Z,0
2018-03-25T00:16:45.308Z,0
2018-03-25T00:17:46.687Z,0
2018-03-25T00:18:48.065Z,0
2018-03-25T00:19:49.460Z,0
2018-03-25T00:20:50.836Z,0
2018-03-25T00:21:52.225Z,0
2018-03-25T00:22:53.602Z,0
2018-03-25T00:23:54.987Z,0
2018-03-25T00:24:56.366Z,0
2018-03-25T00:25:57.757Z,0
2018-03-25T00:26:59.132Z,0
2018-03-25T00:28:00.640Z,0
2018-03-25T00:29:02.030Z,0
2018-03-25T00:30:03.416Z,0
2018-03-25T00:31:04.794Z,0
2018-03-25T00:32:06.177Z,0
2018-03-25T00:33:07.553Z,0
2018-03-25T00:34:08.947Z,0
2018-03-25T00:35:10.338Z,0
2018-03-25T00:36:11.730Z,0
2018-03-25T00:37:13.120Z,0
2018-03-25T00:38:14.502Z,0
2018-03-25T00:39:15.877Z,0
2018-03-25T00:40:17.263Z,0
2018-03-25T00:41:18.641Z,0
2018-03-25T00:42:20.046Z,0
2018-03-25T00:43:21.404Z,0
2018-03-25T00:44:22.782Z,0
2018-03-25T00:45:24.170Z,0
2018-03-25T00:46:25.548Z,0
2018-03-25T00:47:26.923Z,0
2018-03-25T00:48:28.386Z,0
2018-03-25T00:49:29.762Z,0
2018-03-25T00:50:31.143Z,0
2018-03-25T00:51:32.561Z,0
2018-03-25T00:52:33.952Z,0
2018-03-25T00:53:35.318Z,0
2018-03-25T00:54:36.726Z,0
2018-03-25T00:55:38.097Z,0
2018-03-25T00:56:39.502Z,0
2018-03-25T00:57:40.962Z,0
2018-03-25T00:58:42.350Z,0
2018-03-25T00:59:43.734Z,0
2018-03-25T01:00:45.119Z,0
2018-03-25T01:01:46.510Z,0
2018-03-25T01:02:47.875Z,0
2018-03-25T01:03:49.252Z,0
2018-03-25T01:04:50.650Z,0
2018-03-25T01:05:52.027Z,0
2018-03-25T01:06:53.412Z,0
2018-03-25T01:07:54.791Z,0
2018-03-25T01:08:56.279Z,0
2018-03-25T01:09:57.661Z,0
2018-03-25T01:10:59.057Z,0
2018-03-25T01:12:00.441Z,0
2018-03-25T01:13:01.820Z,0
2018-03-25T01:14:03.194Z,0
2018-03-25T01:15:04.574Z,0
2018-03-25T01:16:05.960Z,0
2018-03-25T01:17:07.347Z,0
2018-03-25T01:18:08.773Z,0
2018-03-25T01:19:10.149Z,0
2018-03-25T01:20:11.534Z,0
2018-03-25T01:21:12.924Z,0
2018-03-25T01:22:14.318Z,0
2018-03-25T01:23:15.696Z,0
2018-03-25T01:24:17.081Z,0
2018-03-25T01:25:18.455Z,0
2018-03-25T01:26:19.840Z,0
2018-03-25T01:27:21.223Z,0
2018-03-25T01:28:22.611Z,0
2018-03-25T01:29:24.068Z,0
2018-03-25T01:30:25.445Z,0
2018-03-25T01:31:26.819Z,0
2018-03-25T01:32:28.198Z,0
2018-03-25T01:33:29.577Z,0
2018-03-25T01:34:30.953Z,0
2018-03-25T01:35:32.339Z,0
2018-03-25T01:36:33.726Z,0
2018-03-25T01:37:35.103Z,0
2018-03-25T01:38:36.488Z,0
2018-03-25T01:39:37.868Z,0
2018-03-25T01:40:39.253Z,0
2018-03-25T01:41:40.626Z,0
2018-03-25T01:42:42.019Z,0
2018-03-25T01:43:43.390Z,0
2018-03-25T01:44:44.773Z,0
2018-03-25T01:45:46.159Z,0
2018-03-25T01:46:47.535Z,0
2018-03-25T01:47:48.912Z,0
2018-03-25T01:48:50.303Z,0
2018-03-25T01:49:51.734Z,0
2018-03-25T01:50:53.133Z,0
2018-03-25T01:51:54.492Z,0
2018-03-25T01:52:55.896Z,0
2018-03-25T01:53:57.278Z,0
2018-03-25T01:54:58.651Z,0
2018-03-25T01:56:00.034Z,0
2018-03-25T01:57:01.414Z,0
2018-03-25T01:58:02.791Z,0
2018-03-25T01:59:04.196Z,0
2018-03-25T02:00:05.597Z,0
2018-03-25T02:01:06.974Z,0
2018-03-25T02:02:08.354Z,0
2018-03-25T02:03:09.741Z,0
2018-03-25T02:04:11.198Z,0
2018-03-25T02:05:12.585Z,0
2018-03-25T02:06:13.982Z,0
2018-03-25T02:07:15.358Z,0
2018-03-25T02:08:16.734Z,0
2018-03-25T02:09:18.113Z,0
2018-03-25T02:10:19.560Z,0
2018-03-25T02:11:20.942Z,0
2018-03-25T02:12:22.323Z,0
2018-03-25T02:13:23.713Z,0
2018-03-25T02:14:25.123Z,0
2018-03-25T02:15:26.481Z,0
2018-03-25T02:16:27.864Z,0
2018-03-25T02:17:29.245Z,0
2018-03-25T02:18:30.625Z,0
2018-03-25T02:19:32.077Z,0
2018-03-25T02:20:33.454Z,0
2018-03-25T02:21:35.483Z,0
2018-03-25T02:22:36.862Z,0
2018-03-25T02:23:38.237Z,0
2018-03-25T02:24:39.637Z,0
2018-03-25T02:25:41.002Z,0
2018-03-25T02:26:42.376Z,0
2018-03-25T02:27:43.747Z,0
2018-03-25T02:28:45.176Z,0
2018-03-25T02:29:46.510Z,0
2018-03-25T02:30:47.942Z,0
2018-03-25T02:31:49.330Z,0
2018-03-25T02:32:50.712Z,0
2018-03-25T02:33:52.086Z,0
2018-03-25T02:34:53.462Z,0
2018-03-25T02:35:54.843Z,0
2018-03-25T02:36:56.231Z,0
2018-03-25T02:37:57.623Z,0
2018-03-25T02:38:59.004Z,0
2018-03-25T02:40:00.383Z,0
2018-03-25T02:41:01.751Z,0
2018-03-25T02:42:03.134Z,0
2018-03-25T02:43:04.511Z,0
2018-03-25T02:44:05.901Z,0
2018-03-25T02:45:07.278Z,0
2018-03-25T02:46:08.655Z,0
2018-03-25T02:47:10.040Z,0
2018-03-25T02:48:11.423Z,0
2018-03-25T02:49:12.799Z,0
2018-03-25T02:50:14.177Z,0
2018-03-25T02:51:15.589Z,0
2018-03-25T02:52:16.970Z,0
2018-03-25T02:53:18.347Z,0
2018-03-25T02:54:19.726Z,0
2018-03-25T02:55:21.117Z,0
2018-03-25T02:56:22.489Z,0
2018-03-25T02:57:23.885Z,0
2018-03-25T02:58:25.247Z,0
2018-03-25T02:59:26.639Z,0
2018-03-25T03:00:28.040Z,0
2018-03-25T03:01:29.413Z,0
2018-03-25T03:02:30.796Z,0
2018-03-25T03:03:32.164Z,0
2018-03-25T03:04:33.551Z,0
2018-03-25T03:05:34.934Z,0
2018-03-25T03:06:36.324Z,0
2018-03-25T03:07:37.697Z,0
2018-03-25T03:08:39.076Z,0
2018-03-25T03:09:40.456Z,0
2018-03-25T03:10:41.840Z,0
2018-03-25T03:11:43.284Z,0
2018-03-25T03:12:44.686Z,0
2018-03-25T03:13:46.071Z,0
2018-03-25T03:14:47.453Z,0
2018-03-25T03:15:48.838Z,0
2018-03-25T03:16:50.213Z,0
2018-03-25T03:17:51.597Z,0
2018-03-25T03:18:52.985Z,0
2018-03-25T03:19:54.361Z,0
2018-03-25T03:20:55.790Z,0
2018-03-25T03:21:57.174Z,0
2018-03-25T03:22:58.554Z,0
2018-03-25T03:23:59.929Z,0
2018-03-25T03:25:01.307Z,0
2018-03-25T03:26:02.706Z,0
2018-03-25T03:27:04.093Z,0
2018-03-25T03:28:05.471Z,0
2018-03-25T03:29:06.926Z,0
2018-03-25T03:30:08.308Z,0
2018-03-25T03:31:09.685Z,0
2018-03-25T03:32:11.198Z,0
2018-03-25T03:33:12.611Z,0
2018-03-25T03:34:13.993Z,0
2018-03-25T03:35:15.374Z,0
2018-03-25T03:36:16.757Z,0
2018-03-25T03:37:18.140Z,0
2018-03-25T03:38:19.520Z,0
2018-03-25T03:39:20.894Z,0
2018-03-25T03:40:22.283Z,0
2018-03-25T03:41:23.727Z,0
2018-03-25T03:42:25.111Z,0
2018-03-25T03:43:26.490Z,0
2018-03-25T03:44:27.869Z,0
2018-03-25T03:45:29.247Z,0
2018-03-25T03:46:30.629Z,0
2018-03-25T03:47:32.014Z,0
2018-03-25T03:48:33.394Z,0
2018-03-25T03:49:34.772Z,0
2018-03-25T03:50:36.148Z,0
2018-03-25T03:51:37.526Z,0
2018-03-25T03:52:38.984Z,0
2018-03-25T03:53:40.359Z,0
2018-03-25T03:54:41.741Z,0
2018-03-25T03:55:43.118Z,0
2018-03-25T03:56:44.501Z,0
2018-03-25T03:57:45.873Z,0
2018-03-25T03:58:47.272Z,0
2018-03-25T03:59:48.657Z,0
2018-03-25T04:00:50.034Z,0
2018-03-25T04:01:51.464Z,0
2018-03-25T04:02:52.846Z,0
2018-03-25T04:03:54.273Z,0
2018-03-25T04:04:55.607Z,0
2018-03-25T04:05:56.983Z,0
2018-03-25T04:06:58.368Z,0
2018-03-25T04:07:59.747Z,0
2018-03-25T04:09:01.202Z,0
2018-03-25T04:10:02.552Z,0
2018-03-25T04:11:03.933Z,0
2018-03-25T04:12:05.316Z,0
2018-03-25T04:13:06.750Z,0
2018-03-25T04:14:08.142Z,0
2018-03-25T04:15:09.538Z,0
2018-03-25T04:16:10.921Z,0
2018-03-25T04:17:12.297Z,0
2018-03-25T04:18:13.689Z,0
2018-03-25T04:19:15.071Z,0
2018-03-25T04:20:16.454Z,0
2018-03-25T04:21:17.835Z,0
2018-03-25T04:22:20.073Z,0
2018-03-25T04:23:21.452Z,0
2018-03-25T04:24:22.829Z,0
2018-03-25T04:25:24.220Z,0
2018-03-25T04:26:25.621Z,0
2018-03-25T04:27:27.004Z,0
2018-03-25T04:28:28.379Z,0
2018-03-25T04:29:29.762Z,0
2018-03-25T04:30:31.142Z,0
2018-03-25T04:31:32.522Z,0
2018-03-25T04:32:33.905Z,0
2018-03-25T04:33:35.311Z,0
2018-03-25T04:34:36.701Z,0
2018-03-25T04:35:38.083Z,0
2018-03-25T04:36:39.453Z,0
2018-03-25T04:37:40.839Z,0
2018-03-25T04:38:42.224Z,0
2018-03-25T04:39:43.605Z,0
2018-03-25T04:40:44.991Z,0
2018-03-25T04:41:46.365Z,0
2018-03-25T04:42:47.749Z,0
2018-03-25T04:43:49.132Z,0
2018-03-25T04:44:50.507Z,0
2018-03-25T04:45:51.887Z,0
2018-03-25T04:46:53.271Z,0
2018-03-25T04:47:54.656Z,0
2018-03-25T04:48:56.034Z,4
2018-03-25T04:49:57.427Z,0
2018-03-25T04:50:58.800Z,0
2018-03-25T04:52:00.196Z,4
2018-03-25T04:53:01.580Z,0
2018-03-25T04:54:03.031Z,0
2018-03-25T04:55:04.410Z,4
2018-03-25T04:56:05.878Z,0
2018-03-25T04:57:07.176Z,4
2018-03-25T04:58:08.568Z,4
2018-03-25T04:59:09.947Z,4
2018-03-25T05:00:11.329Z,4
2018-03-25T05:01:12.710Z,8
2018-03-25T05:02:14.089Z,4
2018-03-25T05:03:15.474Z,8
2018-03-25T05:04:16.849Z,8
2018-03-25T05:05:18.238Z,12
2018-03-25T05:06:19.619Z,12
2018-03-25T05:07:21.041Z,12
2018-03-25T05:08:22.386Z,12
2018-03-25T05:09:23.766Z,16
2018-03-25T05:10:25.148Z,16
2018-03-25T05:11:26.529Z,20
2018-03-25T05:12:27.902Z,20
2018-03-25T05:13:29.275Z,20
2018-03-25T05:14:30.746Z,24
2018-03-25T05:15:32.131Z,24
2018-03-25T05:16:33.512Z,28
2018-03-25T05:17:34.888Z,32
2018-03-25T05:18:36.267Z,32
2018-03-25T05:19:37.644Z,36
2018-03-25T05:20:39.032Z,36
2018-03-25T05:21:41.095Z,36
2018-03-25T05:22:42.476Z,40
2018-03-25T05:23:43.847Z,44
2018-03-25T05:24:45.241Z,48
2018-03-25T05:25:46.669Z,48
2018-03-25T05:26:48.050Z,52
2018-03-25T05:27:49.426Z,56
2018-03-25T05:28:50.825Z,56
2018-03-25T05:29:52.211Z,60
2018-03-25T05:30:53.595Z,60
2018-03-25T05:31:54.979Z,60
2018-03-25T05:32:56.373Z,64
2018-03-25T05:33:57.776Z,68
2018-03-25T05:34:59.195Z,72
2018-03-25T05:36:00.567Z,72
2018-03-25T05:37:01.948Z,76
2018-03-25T05:38:03.327Z,80
2018-03-25T05:39:04.714Z,84
2018-03-25T05:40:06.158Z,84
2018-03-25T05:41:07.538Z,84
2018-03-25T05:42:08.917Z,88
2018-03-25T05:43:10.297Z,92
2018-03-25T05:44:11.672Z,96
2018-03-25T05:45:13.051Z,92
2018-03-25T05:46:14.523Z,96
2018-03-25T05:47:15.932Z,100
2018-03-25T05:48:17.305Z,104
2018-03-25T05:49:18.684Z,104
2018-03-25T05:50:20.067Z,108
2018-03-25T05:51:21.449Z,108
2018-03-25T05:52:22.818Z,108
2018-03-25T05:53:24.208Z,116
2018-03-25T05:54:25.585Z,112
2018-03-25T05:55:27.020Z,116
2018-03-25T05:56:28.400Z,116
2018-03-25T05:57:29.779Z,120
2018-03-25T05:58:31.158Z,120
2018-03-25T05:59:32.552Z,124
2018-03-25T06:00:33.933Z,128
2018-03-25T06:01:35.316Z,128
2018-03-25T06:02:36.696Z,132
2018-03-25T06:03:38.072Z,132
2018-03-25T06:04:39.459Z,136
2018-03-25T06:05:40.862Z,136
2018-03-25T06:06:42.317Z,140
2018-03-25T06:07:43.706Z,140
2018-03-25T06:08:45.108Z,140
2018-03-25T06:09:46.482Z,144
2018-03-25T06:10:47.873Z,144
2018-03-25T06:11:49.255Z,148
2018-03-25T06:12:50.636Z,148
2018-03-25T06:13:52.019Z,152
2018-03-25T06:14:53.411Z,152
2018-03-25T06:15:54.861Z,156
2018-03-25T06:16:56.200Z,156
2018-03-25T06:17:57.577Z,160
2018-03-25T06:18:58.960Z,160
2018-03-25T06:20:00.343Z,160
2018-03-25T06:21:01.732Z,164
2018-03-25T06:22:03.125Z,164
2018-03-25T06:23:04.517Z,168
2018-03-25T06:24:05.976Z,168
2018-03-25T06:25:07.356Z,172
2018-03-25T06:26:08.736Z,172
2018-03-25T06:27:10.181Z,176
2018-03-25T06:28:11.566Z,176
2018-03-25T06:29:12.968Z,176
2018-03-25T06:30:14.344Z,180
2018-03-25T06:31:15.720Z,180
2018-03-25T06:32:17.202Z,180
2018-03-25T06:33:18.588Z,184
2018-03-25T06:34:19.970Z,184
2018-03-25T06:35:21.356Z,184
2018-03-25T06:36:22.750Z,184
2018-03-25T06:37:24.134Z,188
2018-03-25T06:38:25.563Z,188
2018-03-25T06:39:26.908Z,192
2018-03-25T06:40:28.277Z,192
2018-03-25T06:41:29.664Z,196
2018-03-25T06:42:31.050Z,196
2018-03-25T06:43:32.432Z,196
2018-03-25T06:44:33.813Z,200
2018-03-25T06:45:35.205Z,200
2018-03-25T06:46:36.588Z,200
2018-03-25T06:47:38.057Z,200
2018-03-25T06:48:39.472Z,204
2018-03-25T06:49:40.838Z,208
2018-03-25T06:50:42.239Z,208
2018-03-25T06:51:43.620Z,208
2018-03-25T06:52:44.998Z,212
2018-03-25T06:53:46.385Z,212
2018-03-25T06:54:47.764Z,212
2018-03-25T06:55:49.153Z,212
2018-03-25T06:56:50.587Z,220
2018-03-25T06:57:51.973Z,220
2018-03-25T06:58:53.388Z,220
2018-03-25T06:59:54.773Z,220
2018-03-25T07:00:56.158Z,220
2018-03-25T07:01:57.580Z,224
2018-03-25T07:02:58.918Z,228
2018-03-25T07:04:00.307Z,228
2018-03-25T07:05:01.685Z,228
2018-03-25T07:06:03.070Z,228
2018-03-25T07:07:04.451Z,236
2018-03-25T07:08:05.907Z,232
2018-03-25T07:09:07.300Z,236
2018-03-25T07:10:08.686Z,236
2018-03-25T07:11:10.074Z,240
2018-03-25T07:12:11.450Z,244
2018-03-25T07:13:12.834Z,244
2018-03-25T07:14:14.215Z,244
2018-03-25T07:15:15.599Z,248
2018-03-25T07:16:16.989Z,252
2018-03-25T07:17:18.438Z,252
2018-03-25T07:18:19.828Z,252
2018-03-25T07:19:21.214Z,256
2018-03-25T07:20:22.595Z,260
2018-03-25T07:21:23.973Z,260
2018-03-25T07:22:25.358Z,260
2018-03-25T07:23:26.739Z,264
2018-03-25T07:24:28.119Z,268
2018-03-25T07:25:29.522Z,264
2018-03-25T07:26:30.906Z,268
2018-03-25T07:27:32.284Z,272
2018-03-25T07:28:33.741Z,272
2018-03-25T07:29:35.123Z,276
2018-03-25T07:30:36.514Z,276
2018-03-25T07:31:37.892Z,280
2018-03-25T07:32:39.277Z,284
2018-03-25T07:33:40.667Z,284
2018-03-25T07:34:42.048Z,288
2018-03-25T07:35:43.433Z,292
2018-03-25T07:36:44.819Z,292
2018-03-25T07:37:46.250Z,292
2018-03-25T07:38:47.586Z,300
2018-03-25T07:39:48.970Z,304
2018-03-25T07:40:50.353Z,304
2018-03-25T07:41:51.732Z,308
2018-03-25T07:42:53.109Z,308
2018-03-25T07:43:54.497Z,312
2018-03-25T07:44:55.888Z,316
2018-03-25T07:45:57.268Z,320
2018-03-25T07:46:58.641Z,320
2018-03-25T07:48:00.030Z,324
2018-03-25T07:49:01.493Z,324
2018-03-25T07:50:02.932Z,328
2018-03-25T07:51:04.273Z,332
2018-03-25T07:52:05.663Z,328
2018-03-25T07:53:07.061Z,324
2018-03-25T07:54:08.442Z,320
2018-03-25T07:55:09.819Z,320
2018-03-25T07:56:11.223Z,324
2018-03-25T07:57:12.801Z,328
2018-03-25T07:58:14.179Z,328
2018-03-25T07:59:15.568Z,332
2018-03-25T08:00:16.958Z,336
2018-03-25T08:01:18.340Z,332
2018-03-25T08:02:19.721Z,328
2018-03-25T08:03:21.136Z,328
2018-03-25T08:04:22.517Z,328
2018-03-25T08:05:23.917Z,332
2018-03-25T08:06:25.296Z,336
2018-03-25T08:07:26.680Z,340
2018-03-25T08:08:28.080Z,344
2018-03-25T08:09:29.520Z,352
2018-03-25T08:10:30.906Z,364
2018-03-25T08:11:32.292Z,368
2018-03-25T08:12:33.675Z,384
2018-03-25T08:13:35.060Z,400
2018-03-25T08:14:36.439Z,412
2018-03-25T08:15:37.841Z,424
2018-03-25T08:16:39.211Z,440
2018-03-25T08:17:40.594Z,448
2018-03-25T08:18:41.976Z,456
2018-03-25T08:19:43.363Z,460
2018-03-25T08:20:44.748Z,460
2018-03-25T08:21:46.178Z,460
2018-03-25T08:22:47.518Z,464
2018-03-25T08:23:48.909Z,476
2018-03-25T08:24:50.285Z,480
2018-03-25T08:25:51.673Z,500
2018-03-25T08:26:53.050Z,512
2018-03-25T08:27:54.474Z,524
2018-03-25T08:28:55.820Z,532
2018-03-25T08:29:57.304Z,540
2018-03-25T08:30:58.683Z,548
2018-03-25T08:32:00.062Z,556
2018-03-25T08:33:01.444Z,560
2018-03-25T08:34:02.838Z,560
2018-03-25T08:35:04.219Z,564
2018-03-25T08:36:05.612Z,556
2018-03-25T08:37:06.991Z,552
2018-03-25T08:38:08.404Z,544
2018-03-25T08:39:09.832Z,540
2018-03-25T08:40:11.240Z,532
2018-03-25T08:41:12.595Z,532
2018-03-25T08:42:13.974Z,528
2018-03-25T08:43:15.359Z,516
2018-03-25T08:44:16.750Z,516
2018-03-25T08:45:18.145Z,512
2018-03-25T08:46:19.533Z,508
2018-03-25T08:47:20.918Z,500
2018-03-25T08:48:22.300Z,496
2018-03-25T08:49:23.684Z,488
2018-03-25T08:50:25.144Z,488
2018-03-25T08:51:26.527Z,488
2018-03-25T08:52:27.922Z,480
2018-03-25T08:53:29.299Z,480
2018-03-25T08:54:31.256Z,480
2018-03-25T08:55:32.656Z,488
2018-03-25T08:56:34.032Z,496
2018-03-25T08:57:35.426Z,508
2018-03-25T08:58:36.813Z,512
2018-03-25T08:59:38.209Z,512
2018-03-25T09:00:39.591Z,520
2018-03-25T09:01:41.064Z,528
2018-03-25T09:02:42.443Z,536
2018-03-25T09:03:43.836Z,536
2018-03-25T09:04:45.230Z,552
2018-03-25T09:05:46.619Z,560
2018-03-25T09:06:48.004Z,572
2018-03-25T09:07:49.390Z,580
2018-03-25T09:08:50.774Z,600
2018-03-25T09:09:52.159Z,616
2018-03-25T09:10:53.581Z,624
2018-03-25T09:11:54.977Z,636
2018-03-25T09:12:56.363Z,648
2018-03-25T09:13:57.753Z,660
2018-03-25T09:14:59.165Z,672
2018-03-25T09:16:00.519Z,680
2018-03-25T09:17:01.898Z,696
2018-03-25T09:18:03.282Z,688
2018-03-25T09:19:04.680Z,664
2018-03-25T09:20:06.089Z,652
2018-03-25T09:21:07.967Z,640
2018-03-25T09:22:09.384Z,636
2018-03-25T09:23:10.740Z,640
2018-03-25T09:24:12.119Z,652
2018-03-25T09:25:13.507Z,656
2018-03-25T09:26:14.890Z,656
2018-03-25T09:27:16.276Z,644
2018-03-25T09:28:17.667Z,592
2018-03-25T09:29:19.052Z,596
2018-03-25T09:30:20.458Z,608
2018-03-25T09:31:21.821Z,608
2018-03-25T09:32:23.200Z,620
2018-03-25T09:33:24.586Z,632
2018-03-25T09:34:25.978Z,636
2018-03-25T09:35:27.361Z,652
2018-03-25T09:36:28.770Z,672
2018-03-25T09:37:30.171Z,684
2018-03-25T09:38:31.559Z,700
2018-03-25T09:39:32.978Z,716
2018-03-25T09:40:34.350Z,736
2018-03-25T09:41:35.758Z,752
2018-03-25T09:42:37.189Z,760
2018-03-25T09:43:38.572Z,772
2018-03-25T09:44:39.968Z,776
2018-03-25T09:45:41.357Z,744
2018-03-25T09:46:42.740Z,748
2018-03-25T09:47:44.130Z,780
2018-03-25T09:48:45.513Z,792
2018-03-25T09:49:46.911Z,780
2018-03-25T09:50:48.301Z,768
2018-03-25T09:51:49.685Z,764
2018-03-25T09:52:51.079Z,776
2018-03-25T09:53:52.537Z,776
2018-03-25T09:54:53.872Z,764
2018-03-25T09:55:55.251Z,752
2018-03-25T09:56:56.643Z,756
2018-03-25T09:57:58.040Z,756
2018-03-25T09:58:59.471Z,756
2018-03-25T10:00:00.862Z,760
2018-03-25T10:01:02.246Z,752
2018-03-25T10:02:03.638Z,720
2018-03-25T10:03:05.154Z,664
2018-03-25T10:04:06.535Z,740
2018-03-25T10:05:07.926Z,752
2018-03-25T10:06:09.314Z,704
2018-03-25T10:07:10.691Z,676
2018-03-25T10:08:12.080Z,708
2018-03-25T10:09:13.469Z,736
2018-03-25T10:10:14.861Z,752
2018-03-25T10:11:16.248Z,772
2018-03-25T10:12:17.635Z,780
2018-03-25T10:13:19.019Z,744
2018-03-25T10:14:20.548Z,744
2018-03-25T10:15:21.931Z,756
2018-03-25T10:16:23.323Z,756
2018-03-25T10:17:24.714Z,772
2018-03-25T10:18:26.114Z,804
2018-03-25T10:19:27.500Z,828
2018-03-25T10:20:28.878Z,848
2018-03-25T10:21:30.272Z,860
2018-03-25T10:22:31.658Z,880
2018-03-25T10:23:33.047Z,896
2018-03-25T10:24:34.438Z,912
2018-03-25T10:25:35.831Z,924
2018-03-25T10:26:37.216Z,936
2018-03-25T10:27:38.607Z,924
2018-03-25T10:28:40.006Z,952
2018-03-25T10:29:41.399Z,968
2018-03-25T10:30:42.780Z,972
2018-03-25T10:31:44.166Z,988
2018-03-25T10:32:45.561Z,992
2018-03-25T10:33:46.952Z,1000
2018-03-25T10:34:48.395Z,1004
2018-03-25T10:35:49.784Z,1012
2018-03-25T10:36:51.177Z,1012
2018-03-25T10:37:52.570Z,1008
2018-03-25T10:38:53.972Z,1016
2018-03-25T10:39:55.363Z,1012
2018-03-25T10:40:56.748Z,1020
2018-03-25T10:41:58.132Z,1040
2018-03-25T10:42:59.520Z,1052
2018-03-25T10:44:00.997Z,1056
2018-03-25T10:45:02.379Z,1068
2018-03-25T10:46:03.766Z,1068
2018-03-25T10:47:05.167Z,1008
2018-03-25T10:48:06.564Z,1064
2018-03-25T10:49:07.964Z,1052
2018-03-25T10:50:09.357Z,1052
2018-03-25T10:51:10.929Z,1104
2018-03-25T10:52:12.360Z,1128
2018-03-25T10:53:13.764Z,1152
2018-03-25T10:54:15.149Z,1192
2018-03-25T10:55:16.570Z,1248
2018-03-25T10:56:19.697Z,1356
2018-03-25T10:57:21.129Z,1544
2018-03-25T10:58:22.536Z,1900
2018-03-25T10:59:23.931Z,2508
2018-03-25T11:00:25.308Z,3532
2018-03-25T11:01:26.706Z,4684
2018-03-25T11:02:28.095Z,5712
2018-03-25T11:03:29.495Z,6420
2018-03-25T11:04:30.882Z,6740
2018-03-25T11:05:32.272Z,7052
2018-03-25T11:06:33.727Z,7336
2018-03-25T11:07:35.109Z,7684
2018-03-25T11:08:36.544Z,8040
2018-03-25T11:09:37.942Z,8300
2018-03-25T11:10:39.344Z,8584
2018-03-25T11:11:40.742Z,8792
2018-03-25T11:12:42.137Z,8944
2018-03-25T11:13:43.532Z,9128
2018-03-25T11:14:44.933Z,9236
2018-03-25T11:15:47.169Z,9464
2018-03-25T11:16:48.612Z,9624
2018-03-25T11:17:50.005Z,9792
2018-03-25T11:18:51.414Z,9892
2018-03-25T11:19:52.852Z,10008
2018-03-25T11:20:54.263Z,9968
2018-03-25T11:21:55.667Z,10032
2018-03-25T11:22:57.075Z,10024
2018-03-25T11:23:58.496Z,10196
2018-03-25T11:24:59.894Z,10244
2018-03-25T11:26:01.333Z,10336
2018-03-25T11:27:02.734Z,10400
2018-03-25T11:28:04.144Z,10304
2018-03-25T11:29:05.594Z,10368
2018-03-25T11:30:07.007Z,10432
2018-03-25T11:31:08.476Z,10464
2018-03-25T11:32:09.880Z,10464
2018-03-25T11:33:11.330Z,10496
2018-03-25T11:34:12.739Z,10496
2018-03-25T11:35:14.157Z,10432
2018-03-25T11:36:15.572Z,10272
2018-03-25T11:37:16.985Z,10272
2018-03-25T11:38:18.676Z,10304
2018-03-25T11:39:20.163Z,10304
2018-03-25T11:40:21.585Z,10304
2018-03-25T11:41:22.993Z,10176
2018-03-25T11:43:04.468Z,9924
2018-03-25T11:44:05.881Z,9808
2018-03-25T11:45:07.326Z,9668
2018-03-25T11:46:08.732Z,9800
2018-03-25T11:47:10.139Z,9748
2018-03-25T11:48:11.553Z,9608
2018-03-25T11:49:12.960Z,9400
2018-03-25T11:50:14.559Z,9232
2018-03-25T11:51:15.979Z,9300
2018-03-25T11:52:17.449Z,9404
2018-03-25T11:53:18.864Z,9460
2018-03-25T11:54:20.272Z,9440
2018-03-25T11:55:21.689Z,9528
2018-03-25T11:56:23.103Z,9504
2018-03-25T11:57:24.517Z,9444
2018-03-25T11:58:25.936Z,9388
2018-03-25T11:59:27.346Z,9628
2018-03-25T12:00:28.825Z,9432
2018-03-25T12:01:30.265Z,9364
2018-03-25T12:02:31.673Z,9328
2018-03-25T12:03:33.086Z,9364
2018-03-25T12:04:34.492Z,9316
2018-03-25T12:05:35.906Z,9196
2018-03-25T12:06:37.310Z,9348
2018-03-25T12:07:38.719Z,9192
2018-03-25T12:08:40.133Z,9116
2018-03-25T12:09:41.552Z,9224
2018-03-25T12:10:42.965Z,9092
2018-03-25T12:11:44.378Z,9036
2018-03-25T12:12:45.877Z,9236
2018-03-25T12:13:47.297Z,9108
2018-03-25T12:14:48.724Z,9164
2018-03-25T12:15:50.130Z,9192
2018-03-25T12:16:51.549Z,9120
2018-03-25T12:17:52.969Z,9396
2018-03-25T12:18:54.420Z,9396
2018-03-25T12:19:55.792Z,9420
2018-03-25T12:20:57.233Z,9452
2018-03-25T12:21:58.680Z,9392
2018-03-25T12:23:00.089Z,9256
2018-03-25T12:24:01.546Z,9212
2018-03-25T12:25:02.976Z,9180
2018-03-25T12:26:04.385Z,9280
2018-03-25T12:27:05.814Z,9328
2018-03-25T12:28:07.226Z,9080
2018-03-25T12:29:08.634Z,9160
2018-03-25T12:30:10.942Z,9032
2018-03-25T12:31:12.346Z,8728
2018-03-25T12:32:13.797Z,8884
2018-03-25T12:33:15.226Z,9068
2018-03-25T12:34:16.639Z,9244
2018-03-25T12:35:18.084Z,9180
2018-03-25T12:36:19.497Z,9096
2018-03-25T12:37:20.903Z,9120
2018-03-25T12:38:22.334Z,9168
2018-03-25T12:39:23.747Z,9260
2018-03-25T12:40:25.164Z,9140
2018-03-25T12:41:26.581Z,8572
2018-03-25T12:42:28.210Z,9024
2018-03-25T12:43:29.634Z,8916
2018-03-25T12:44:31.047Z,8444
2018-03-25T12:45:32.456Z,8732
2018-03-25T12:46:33.950Z,9084
2018-03-25T12:47:35.424Z,9268
2018-03-25T12:48:36.834Z,8832
2018-03-25T12:49:38.248Z,8800
2018-03-25T12:50:39.657Z,8496
2018-03-25T12:51:41.894Z,8996
2018-03-25T12:52:43.309Z,8888
2018-03-25T12:53:44.718Z,9008
2018-03-25T12:54:46.131Z,9004
2018-03-25T12:55:47.698Z,8908
2018-03-25T12:56:49.122Z,9012
2018-03-25T12:57:50.550Z,8992
2018-03-25T12:58:51.962Z,8756
2018-03-25T12:59:53.374Z,8184
2018-03-25T13:00:54.797Z,3880
2018-03-25T13:01:57.061Z,7348
2018-03-25T13:02:58.469Z,5596
2018-03-25T13:03:59.886Z,1184
2018-03-25T13:05:01.289Z,3868
2018-03-25T13:06:02.698Z,7808
2018-03-25T13:07:04.182Z,7480
2018-03-25T13:08:05.682Z,7116
2018-03-25T13:09:07.070Z,6060
2018-03-25T13:10:08.472Z,6484
2018-03-25T13:11:09.919Z,6564
2018-03-25T13:12:11.326Z,6640
2018-03-25T13:13:12.738Z,6760
2018-03-25T13:14:14.159Z,6520
2018-03-25T13:15:15.565Z,6204
2018-03-25T13:16:16.977Z,5964
2018-03-25T13:17:18.383Z,6212
2018-03-25T13:18:19.785Z,6076
2018-03-25T13:19:21.190Z,5964
2018-03-25T13:20:22.596Z,5752
2018-03-25T13:21:23.998Z,5688
2018-03-25T13:22:25.492Z,5412
2018-03-25T13:23:26.910Z,5084
2018-03-25T13:24:28.323Z,5260
2018-03-25T13:25:29.744Z,5224
2018-03-25T13:26:31.145Z,5112
2018-03-25T13:27:32.546Z,4956
2018-03-25T13:28:33.952Z,4940
2018-03-25T13:29:35.353Z,4800
2018-03-25T13:30:36.821Z,4680
2018-03-25T13:31:38.229Z,4604
2018-03-25T13:32:39.639Z,4540
2018-03-25T13:33:41.044Z,4448
2018-03-25T13:34:42.485Z,4316
2018-03-25T13:35:43.851Z,4264
2018-03-25T13:36:45.255Z,4192
2018-03-25T13:37:46.663Z,4164
2018-03-25T13:38:48.063Z,4156
2018-03-25T13:39:49.470Z,4140
2018-03-25T13:40:50.872Z,4116
2018-03-25T13:41:52.278Z,4040
2018-03-25T13:42:53.718Z,4008
2018-03-25T13:43:55.118Z,3976
2018-03-25T13:44:56.516Z,3864
2018-03-25T13:45:57.923Z,3776
2018-03-25T13:46:59.320Z,3712
2018-03-25T13:48:00.723Z,3532
2018-03-25T13:49:02.136Z,3536
2018-03-25T13:50:03.534Z,3488
2018-03-25T13:51:04.941Z,3456
2018-03-25T13:52:06.340Z,3300
2018-03-25T13:53:07.770Z,3200
2018-03-25T13:54:09.174Z,3168
2018-03-25T13:55:10.578Z,3156
2018-03-25T13:56:11.980Z,3112
2018-03-25T13:57:13.431Z,3024
2018-03-25T13:58:14.920Z,2960
2018-03-25T13:59:16.338Z,2904
2018-03-25T14:00:18.813Z,2832
2018-03-25T14:01:20.208Z,2784
2018-03-25T14:02:21.627Z,2700
2018-03-25T14:03:23.021Z,2600
2018-03-25T14:04:24.452Z,2524
2018-03-25T14:05:26.656Z,2544
2018-03-25T14:06:28.059Z,2084
2018-03-25T14:07:29.544Z,964
2018-03-25T14:08:30.942Z,972
2018-03-25T14:09:32.337Z,1452
2018-03-25T14:10:33.734Z,2320
2018-03-25T14:11:35.141Z,2380
2018-03-25T14:12:36.585Z,2332
2018-03-25T14:13:37.988Z,2280
2018-03-25T14:14:39.394Z,2184
2018-03-25T14:15:40.816Z,2136
2018-03-25T14:16:42.294Z,2120
2018-03-25T14:17:43.705Z,2076
2018-03-25T14:18:45.110Z,2056
2018-03-25T14:19:46.530Z,2020